Aviation Digital Data Service (ADDS)

Output produced by METARs form (1843 UTC 18 April 2019)
found at http://www.aviationweather.gov/metar/data/
 
Forecast for: KDVT (PHOENIX/DEER VLY, AZ, US)
Text: KDVT 181720Z 1818/1918 14005KT P6SM SKC
Forecast period: 1800 to 2200 UTC 18 April 2019
Forecast type: FROM: standard forecast or significant change
Winds: from the SE (140 degrees) at 6 MPH (5 knots; 2.6 m/s)
Visibility: 6 or more miles 10+ km)
Clouds: clear skies
Weather: no significant weather forecast for this period
Text: FM182200 22006KT P6SM FEW250
Forecast period: 2200 UTC 18 April 2019 to 0400 UTC 19 April 2019
Forecast type: FROM: standard forecast or significant change
Winds: from the SW (220 degrees) at 7 MPH (6 knots; 3.1 m/s)
Visibility: 6 or more miles 10+ km)
Ceiling: at least 12,000 feet AGL
Clouds: few clouds at 25000 feet AGL
Weather: no significant weather forecast for this period
Text: FM190400 05004KT P6SM FEW250
Forecast period: 0400 to 1800 UTC 19 April 2019
Forecast type: FROM: standard forecast or significant change
Winds: from the NE (50 degrees) at 5 MPH (4 knots; 2.1 m/s)
Visibility: 6 or more miles 10+ km)
Ceiling: at least 12,000 feet AGL
Clouds: few clouds at 25000 feet AGL
Weather: no significant weather forecast for this period